RYR10PA EGSS-LZIB
Flight info
| Callsign | RYR10PA |
|---|---|
| Flight time | 1h 54m |
| Altitude | 37000 |
| Route | CLN P44 RATLO M197 REDFA DCT TACHA DCT MISGO DCT EKSAK DCT SWALM DCT VELIS DCT OKG DCT APRAQ DCT LIKSA DCT ODNEM M748 BERVA |
| Aircraft | B738/M-SDE2E3FGHIRWXY/LB1 |
Departure
| Time | 2026-05-05 21:35 |
|---|---|
| Airport | London Stansted Airport (EGSS) |
Arrival
| Time | 2026-05-05 23:29 |
|---|---|
| Airport | M. R. Štefánik Airport (LZIB) |
| Time | Latitude | Longitude | Altitude | Speed | Heading |
|---|---|---|---|---|---|
| 2026-05-05 21:34 | 51.87585 | 0.22103 | 323 ft | 5 kts | 45° |
| 2026-05-05 21:34 | 51.87731 | 0.22325 | 327 ft | 64 kts | 43° |
| 2026-05-05 21:35 | 51.88229 | 0.23068 | 331 ft | 129 kts | 43° |
| 2026-05-05 21:35 | 51.89014 | 0.24227 | 559 ft | 164 kts | 42° |
| 2026-05-05 21:35 | 51.89841 | 0.25504 | 1332 ft | 168 kts | 44° |
| 2026-05-05 21:35 | 51.90708 | 0.26864 | 1929 ft | 187 kts | 44° |
| 2026-05-05 21:36 | 51.91499 | 0.28669 | 2367 ft | 206 kts | 66° |
| 2026-05-05 21:36 | 51.91712 | 0.30991 | 3045 ft | 216 kts | 93° |
| 2026-05-05 21:36 | 51.91225 | 0.33343 | 3816 ft | 226 kts | 113° |
| 2026-05-05 21:36 | 51.90510 | 0.35623 | 4659 ft | 229 kts | 112° |
| 2026-05-05 21:37 | 51.89804 | 0.37966 | 5371 ft | 238 kts | 112° |
| 2026-05-05 21:37 | 51.89052 | 0.40506 | 5653 ft | 268 kts | 113° |
| 2026-05-05 21:37 | 51.88215 | 0.43326 | 6313 ft | 279 kts | 113° |
| 2026-05-05 21:37 | 51.87382 | 0.46146 | 7145 ft | 283 kts | 114° |
| 2026-05-05 21:38 | 51.86521 | 0.49070 | 8036 ft | 286 kts | 114° |
| 2026-05-05 21:38 | 51.85675 | 0.51948 | 8873 ft | 289 kts | 114° |
| 2026-05-05 21:38 | 51.84808 | 0.54900 | 9714 ft | 292 kts | 114° |
| 2026-05-05 21:38 | 51.83927 | 0.57893 | 10435 ft | 301 kts | 114° |
| 2026-05-05 21:39 | 51.83157 | 0.61181 | 10638 ft | 326 kts | 102° |
| 2026-05-05 21:39 | 51.82920 | 0.64911 | 11071 ft | 340 kts | 88° |
| 2026-05-05 21:39 | 51.83056 | 0.68761 | 11765 ft | 346 kts | 84° |
| 2026-05-05 21:39 | 51.83245 | 0.72657 | 12550 ft | 349 kts | 84° |
| 2026-05-05 21:40 | 51.83427 | 0.76586 | 13326 ft | 352 kts | 85° |
| 2026-05-05 21:40 | 51.83591 | 0.80557 | 14102 ft | 355 kts | 85° |
| 2026-05-05 21:40 | 51.83742 | 0.84564 | 14845 ft | 358 kts | 86° |
| 2026-05-05 21:40 | 51.83887 | 0.88598 | 15572 ft | 362 kts | 86° |
| 2026-05-05 21:41 | 51.84031 | 0.92675 | 16285 ft | 365 kts | 86° |
| 2026-05-05 21:41 | 51.84176 | 0.96789 | 16979 ft | 368 kts | 86° |
| 2026-05-05 21:41 | 51.84321 | 1.00933 | 17651 ft | 371 kts | 86° |
| 2026-05-05 21:41 | 51.84468 | 1.05114 | 18306 ft | 374 kts | 86° |
| 2026-05-05 21:42 | 51.84614 | 1.09329 | 18945 ft | 377 kts | 86° |
| 2026-05-05 21:42 | 51.84773 | 1.13580 | 19532 ft | 381 kts | 84° |
| 2026-05-05 21:42 | 51.85447 | 1.17738 | 20073 ft | 385 kts | 66° |
| 2026-05-05 21:42 | 51.86547 | 1.21706 | 20698 ft | 387 kts | 65° |
| 2026-05-05 21:43 | 51.87669 | 1.25691 | 21256 ft | 391 kts | 66° |
| 2026-05-05 21:43 | 51.88794 | 1.29725 | 21747 ft | 396 kts | 66° |
| 2026-05-05 21:43 | 51.89920 | 1.33829 | 22212 ft | 401 kts | 67° |
| 2026-05-05 21:43 | 51.91045 | 1.37976 | 22698 ft | 405 kts | 67° |
| 2026-05-05 21:44 | 51.92177 | 1.42182 | 23196 ft | 409 kts | 67° |
| 2026-05-05 21:44 | 51.93311 | 1.46420 | 23679 ft | 412 kts | 68° |
| 2026-05-05 21:44 | 51.94452 | 1.50698 | 24123 ft | 416 kts | 68° |
| 2026-05-05 21:44 | 51.95471 | 1.54528 | 24513 ft | 419 kts | 68° |
| 2026-05-05 21:45 | 51.96628 | 1.58875 | 24966 ft | 422 kts | 68° |
| 2026-05-05 21:45 | 51.97795 | 1.63270 | 25408 ft | 425 kts | 68° |
| 2026-05-05 21:45 | 51.98957 | 1.67694 | 25829 ft | 427 kts | 70° |
| 2026-05-05 21:45 | 51.99883 | 1.72222 | 26214 ft | 429 kts | 77° |
| 2026-05-05 21:46 | 52.00623 | 1.76912 | 26638 ft | 431 kts | 78° |
| 2026-05-05 21:46 | 52.01321 | 1.81661 | 27002 ft | 434 kts | 79° |
| 2026-05-05 21:46 | 52.02011 | 1.86389 | 27385 ft | 437 kts | 79° |
| 2026-05-05 21:46 | 52.02732 | 1.91244 | 27771 ft | 439 kts | 79° |
| 2026-05-05 21:47 | 52.03462 | 1.96067 | 28140 ft | 441 kts | 78° |
| 2026-05-05 21:47 | 52.04194 | 2.00849 | 28497 ft | 443 kts | 78° |
| 2026-05-05 21:47 | 52.04945 | 2.05733 | 28837 ft | 445 kts | 79° |
| 2026-05-05 21:47 | 52.05697 | 2.10613 | 29170 ft | 448 kts | 79° |
| 2026-05-05 21:48 | 52.06455 | 2.15545 | 29492 ft | 450 kts | 79° |
| 2026-05-05 21:48 | 52.07211 | 2.20480 | 29801 ft | 452 kts | 79° |
| 2026-05-05 21:48 | 52.07970 | 2.25448 | 30086 ft | 454 kts | 79° |
| 2026-05-05 21:48 | 52.08726 | 2.30420 | 30358 ft | 457 kts | 79° |
| 2026-05-05 21:49 | 52.09490 | 2.35465 | 30663 ft | 458 kts | 79° |
| 2026-05-05 21:49 | 52.10252 | 2.40498 | 31042 ft | 457 kts | 79° |
| 2026-05-05 21:49 | 52.11006 | 2.45500 | 31450 ft | 455 kts | 79° |
| 2026-05-05 21:49 | 52.11779 | 2.50484 | 31823 ft | 455 kts | 77° |
| 2026-05-05 21:50 | 52.12665 | 2.55425 | 32155 ft | 456 kts | 76° |
| 2026-05-05 21:50 | 52.13615 | 2.60360 | 32474 ft | 456 kts | 75° |
| 2026-05-05 21:50 | 52.14577 | 2.65258 | 32834 ft | 455 kts | 75° |
| 2026-05-05 21:50 | 52.15534 | 2.70160 | 33194 ft | 454 kts | 75° |
| 2026-05-05 21:51 | 52.16477 | 2.75064 | 33513 ft | 453 kts | 76° |
| 2026-05-05 21:51 | 52.17407 | 2.79965 | 33813 ft | 453 kts | 76° |
| 2026-05-05 21:51 | 52.18329 | 2.84874 | 34117 ft | 453 kts | 76° |
| 2026-05-05 21:51 | 52.19246 | 2.89775 | 34414 ft | 452 kts | 76° |
| 2026-05-05 21:52 | 52.21075 | 2.99595 | 34899 ft | 454 kts | 76° |
| 2026-05-05 21:52 | 52.21990 | 3.04527 | 35125 ft | 455 kts | 76° |
| 2026-05-05 21:52 | 52.22903 | 3.09457 | 35417 ft | 454 kts | 76° |
| 2026-05-05 21:53 | 52.23812 | 3.14369 | 35688 ft | 453 kts | 76° |
| 2026-05-05 21:53 | 52.24619 | 3.19273 | 35882 ft | 452 kts | 83° |
| 2026-05-05 21:53 | 52.24843 | 3.24353 | 36065 ft | 448 kts | 96° |
| 2026-05-05 21:53 | 52.24474 | 3.29358 | 36324 ft | 443 kts | 106° |
| 2026-05-05 21:54 | 52.23574 | 3.34127 | 36532 ft | 440 kts | 112° |
| 2026-05-05 21:54 | 52.22538 | 3.38819 | 36718 ft | 440 kts | 113° |
| 2026-05-05 21:54 | 52.21483 | 3.43513 | 36930 ft | 440 kts | 113° |
| 2026-05-05 21:55 | 52.19373 | 3.52950 | 36966 ft | 443 kts | 113° |
| 2026-05-05 21:55 | 52.17657 | 3.60739 | 36952 ft | 435 kts | 112° |
| 2026-05-05 21:56 | 52.15645 | 3.69921 | 36957 ft | 428 kts | 112° |
| 2026-05-05 21:56 | 52.13640 | 3.79042 | 36943 ft | 426 kts | 113° |
| 2026-05-05 21:57 | 52.11640 | 3.88098 | 36941 ft | 425 kts | 113° |
| 2026-05-05 21:57 | 52.09635 | 3.97137 | 36935 ft | 425 kts | 113° |
| 2026-05-05 21:58 | 52.07624 | 4.06167 | 36937 ft | 425 kts | 113° |
| 2026-05-05 21:58 | 52.05602 | 4.15208 | 36929 ft | 426 kts | 113° |
| 2026-05-05 21:59 | 52.03568 | 4.24265 | 36919 ft | 428 kts | 113° |
| 2026-05-05 21:59 | 52.01513 | 4.33360 | 36912 ft | 429 kts | 113° |
| 2026-05-05 22:00 | 51.99450 | 4.42465 | 36922 ft | 431 kts | 113° |
| 2026-05-05 22:00 | 51.97370 | 4.51608 | 36915 ft | 432 kts | 113° |
| 2026-05-05 22:01 | 51.95282 | 4.60746 | 36924 ft | 433 kts | 113° |
| 2026-05-05 22:01 | 51.93184 | 4.69889 | 36902 ft | 432 kts | 114° |
| 2026-05-05 22:02 | 51.91084 | 4.78997 | 36910 ft | 431 kts | 114° |
| 2026-05-05 22:02 | 51.88984 | 4.88072 | 36907 ft | 430 kts | 114° |
| 2026-05-05 22:03 | 51.86885 | 4.97100 | 36899 ft | 428 kts | 114° |
| 2026-05-05 22:03 | 51.84802 | 5.06020 | 36891 ft | 426 kts | 114° |
| 2026-05-05 22:04 | 51.82703 | 5.14965 | 36890 ft | 425 kts | 114° |
| 2026-05-05 22:04 | 51.80607 | 5.23873 | 36894 ft | 423 kts | 114° |
| 2026-05-05 22:05 | 51.78508 | 5.32749 | 36886 ft | 422 kts | 114° |
| 2026-05-05 22:05 | 51.76412 | 5.41579 | 36889 ft | 421 kts | 115° |
| 2026-05-05 22:06 | 51.74310 | 5.50394 | 36886 ft | 420 kts | 115° |
| 2026-05-05 22:06 | 51.72207 | 5.59185 | 36888 ft | 420 kts | 115° |
| 2026-05-05 22:07 | 51.70096 | 5.67973 | 36889 ft | 420 kts | 115° |
| 2026-05-05 22:07 | 51.67978 | 5.76749 | 36894 ft | 421 kts | 115° |
| 2026-05-05 22:08 | 51.65845 | 5.85552 | 36880 ft | 422 kts | 115° |
| 2026-05-05 22:08 | 51.63705 | 5.94355 | 36876 ft | 423 kts | 115° |
| 2026-05-05 22:09 | 51.61548 | 6.03185 | 36870 ft | 424 kts | 115° |
| 2026-05-05 22:09 | 51.59383 | 6.12018 | 36863 ft | 425 kts | 115° |
| 2026-05-05 22:10 | 51.57222 | 6.20794 | 36860 ft | 425 kts | 115° |
| 2026-05-05 22:10 | 51.55045 | 6.29610 | 36859 ft | 424 kts | 115° |
| 2026-05-05 22:11 | 51.52864 | 6.38400 | 36850 ft | 424 kts | 115° |
| 2026-05-05 22:11 | 51.50674 | 6.47189 | 36852 ft | 423 kts | 116° |
| 2026-05-05 22:12 | 51.48487 | 6.55937 | 36842 ft | 422 kts | 116° |
| 2026-05-05 22:12 | 51.46293 | 6.64676 | 36832 ft | 421 kts | 116° |
| 2026-05-05 22:13 | 51.44101 | 6.73373 | 36836 ft | 420 kts | 116° |
| 2026-05-05 22:13 | 51.41907 | 6.82052 | 36836 ft | 420 kts | 116° |
| 2026-05-05 22:14 | 51.39750 | 6.90756 | 36823 ft | 421 kts | 114° |
| 2026-05-05 22:14 | 51.37816 | 6.99619 | 36832 ft | 422 kts | 113° |
| 2026-05-05 22:15 | 51.35925 | 7.08478 | 36831 ft | 421 kts | 113° |
| 2026-05-05 22:15 | 51.34011 | 7.17321 | 36835 ft | 420 kts | 113° |
| 2026-05-05 22:16 | 51.32079 | 7.26124 | 36840 ft | 419 kts | 114° |
| 2026-05-05 22:16 | 51.30130 | 7.34938 | 36839 ft | 421 kts | 114° |
| 2026-05-05 22:17 | 51.28176 | 7.43749 | 36842 ft | 421 kts | 114° |
| 2026-05-05 22:17 | 51.26211 | 7.52562 | 36830 ft | 421 kts | 114° |
| 2026-05-05 22:18 | 51.24243 | 7.61373 | 36817 ft | 422 kts | 114° |
| 2026-05-05 22:18 | 51.22282 | 7.70107 | 36818 ft | 421 kts | 114° |
| 2026-05-05 22:19 | 51.20299 | 7.78884 | 36832 ft | 421 kts | 114° |
| 2026-05-05 22:19 | 51.18309 | 7.87667 | 36816 ft | 422 kts | 114° |
| 2026-05-05 22:20 | 51.16304 | 7.96467 | 36832 ft | 423 kts | 114° |
| 2026-05-05 22:20 | 51.14296 | 8.05261 | 36820 ft | 422 kts | 114° |
| 2026-05-05 22:21 | 51.12283 | 8.14043 | 36840 ft | 422 kts | 115° |
| 2026-05-05 22:21 | 51.10259 | 8.22814 | 36814 ft | 422 kts | 115° |
| 2026-05-05 22:22 | 51.08230 | 8.31592 | 36818 ft | 422 kts | 115° |
| 2026-05-05 22:22 | 51.06199 | 8.40345 | 36815 ft | 422 kts | 115° |
| 2026-05-05 22:23 | 51.04163 | 8.49086 | 36819 ft | 422 kts | 115° |
| 2026-05-05 22:23 | 51.02073 | 8.57796 | 36812 ft | 420 kts | 119° |
| 2026-05-05 22:24 | 50.98947 | 8.65473 | 36829 ft | 412 kts | 132° |
| 2026-05-05 22:24 | 50.95397 | 8.72606 | 36816 ft | 412 kts | 132° |
| 2026-05-05 22:25 | 50.91853 | 8.79774 | 36809 ft | 413 kts | 131° |
| 2026-05-05 22:25 | 50.88318 | 8.86971 | 36803 ft | 414 kts | 131° |
| 2026-05-05 22:26 | 50.84782 | 8.94156 | 36800 ft | 414 kts | 131° |
| 2026-05-05 22:26 | 50.81267 | 9.01281 | 36811 ft | 414 kts | 131° |
| 2026-05-05 22:27 | 50.77724 | 9.08463 | 36800 ft | 414 kts | 131° |
| 2026-05-05 22:27 | 50.74175 | 9.15619 | 36809 ft | 414 kts | 132° |
| 2026-05-05 22:28 | 50.71164 | 9.23407 | 36807 ft | 421 kts | 116° |
| 2026-05-05 22:28 | 50.69385 | 9.32273 | 36806 ft | 425 kts | 110° |
| 2026-05-05 22:29 | 50.67739 | 9.41205 | 36812 ft | 424 kts | 110° |
| 2026-05-05 22:29 | 50.66064 | 9.50111 | 36803 ft | 424 kts | 111° |
| 2026-05-05 22:30 | 50.64359 | 9.59012 | 36803 ft | 424 kts | 111° |
| 2026-05-05 22:30 | 50.62642 | 9.67897 | 36809 ft | 424 kts | 111° |
| 2026-05-05 22:31 | 50.60917 | 9.76777 | 36806 ft | 424 kts | 111° |
| 2026-05-05 22:31 | 50.59184 | 9.85659 | 36802 ft | 424 kts | 111° |
| 2026-05-05 22:32 | 50.57444 | 9.94533 | 36805 ft | 424 kts | 111° |
| 2026-05-05 22:32 | 50.55700 | 10.03390 | 36813 ft | 424 kts | 111° |
| 2026-05-05 22:33 | 50.53948 | 10.12249 | 36819 ft | 424 kts | 111° |
| 2026-05-05 22:33 | 50.52190 | 10.21099 | 36812 ft | 424 kts | 111° |
| 2026-05-05 22:34 | 50.50436 | 10.29888 | 36811 ft | 424 kts | 111° |
| 2026-05-05 22:34 | 50.48665 | 10.38729 | 36812 ft | 424 kts | 112° |
| 2026-05-05 22:35 | 50.46890 | 10.47546 | 36813 ft | 424 kts | 112° |
| 2026-05-05 22:35 | 50.45118 | 10.56376 | 36813 ft | 425 kts | 112° |
| 2026-05-05 22:36 | 50.43346 | 10.65220 | 36814 ft | 425 kts | 112° |
| 2026-05-05 22:36 | 50.41565 | 10.74069 | 36824 ft | 426 kts | 112° |
| 2026-05-05 22:37 | 50.39772 | 10.82928 | 36834 ft | 426 kts | 112° |
| 2026-05-05 22:37 | 50.37970 | 10.91787 | 36824 ft | 427 kts | 112° |
| 2026-05-05 22:38 | 50.36156 | 11.00671 | 36832 ft | 428 kts | 112° |
| 2026-05-05 22:38 | 50.34334 | 11.09551 | 36811 ft | 429 kts | 112° |
| 2026-05-05 22:39 | 50.32498 | 11.18458 | 36808 ft | 430 kts | 112° |
| 2026-05-05 22:39 | 50.30652 | 11.27378 | 36810 ft | 431 kts | 113° |
| 2026-05-05 22:40 | 50.28797 | 11.36301 | 36820 ft | 432 kts | 113° |
| 2026-05-05 22:40 | 50.26927 | 11.45251 | 36803 ft | 433 kts | 113° |
| 2026-05-05 22:41 | 50.25050 | 11.54203 | 36808 ft | 433 kts | 113° |
| 2026-05-05 22:41 | 50.23166 | 11.63150 | 36809 ft | 434 kts | 113° |
| 2026-05-05 22:42 | 50.21269 | 11.72113 | 36803 ft | 435 kts | 114° |
| 2026-05-05 22:42 | 50.19378 | 11.81015 | 36803 ft | 435 kts | 114° |
| 2026-05-05 22:43 | 50.17465 | 11.89968 | 36804 ft | 435 kts | 114° |
| 2026-05-05 22:43 | 50.15546 | 11.98916 | 36812 ft | 435 kts | 114° |
| 2026-05-05 22:44 | 50.13621 | 12.07852 | 36808 ft | 435 kts | 114° |
| 2026-05-05 22:44 | 50.11690 | 12.16788 | 36805 ft | 435 kts | 114° |
| 2026-05-05 22:45 | 50.09753 | 12.25701 | 36816 ft | 434 kts | 114° |
| 2026-05-05 22:45 | 50.08142 | 12.33095 | 36813 ft | 434 kts | 114° |
| 2026-05-05 22:46 | 50.06190 | 12.41992 | 36814 ft | 433 kts | 114° |
| 2026-05-05 22:46 | 50.04147 | 12.50793 | 36818 ft | 433 kts | 115° |
| 2026-05-05 22:47 | 50.02063 | 12.59568 | 36831 ft | 432 kts | 115° |
| 2026-05-05 22:47 | 49.99979 | 12.68342 | 36820 ft | 433 kts | 115° |
| 2026-05-05 22:48 | 49.97894 | 12.77125 | 36814 ft | 433 kts | 115° |
| 2026-05-05 22:48 | 49.95807 | 12.85898 | 36829 ft | 433 kts | 114° |
| 2026-05-05 22:49 | 49.93711 | 12.94677 | 36829 ft | 434 kts | 114° |
| 2026-05-05 22:49 | 49.91604 | 13.03454 | 36820 ft | 434 kts | 114° |
| 2026-05-05 22:50 | 49.89490 | 13.12239 | 36822 ft | 435 kts | 114° |
| 2026-05-05 22:50 | 49.87365 | 13.21030 | 36828 ft | 435 kts | 114° |
| 2026-05-05 22:51 | 49.85236 | 13.29811 | 36828 ft | 435 kts | 114° |
| 2026-05-05 22:51 | 49.83095 | 13.38592 | 36835 ft | 436 kts | 114° |
| 2026-05-05 22:52 | 49.80943 | 13.47384 | 36838 ft | 437 kts | 114° |
| 2026-05-05 22:52 | 49.78782 | 13.56183 | 36823 ft | 438 kts | 114° |
| 2026-05-05 22:53 | 49.76614 | 13.64987 | 36830 ft | 438 kts | 114° |
| 2026-05-05 22:53 | 49.74434 | 13.73791 | 36825 ft | 438 kts | 114° |
| 2026-05-05 22:54 | 49.72247 | 13.82590 | 36825 ft | 439 kts | 114° |
| 2026-05-05 22:54 | 49.70048 | 13.91384 | 36812 ft | 439 kts | 114° |
| 2026-05-05 22:55 | 49.67845 | 14.00174 | 36813 ft | 438 kts | 114° |
| 2026-05-05 22:55 | 49.65661 | 14.08891 | 36819 ft | 438 kts | 114° |
| 2026-05-05 22:56 | 49.63438 | 14.17706 | 36808 ft | 438 kts | 114° |
| 2026-05-05 22:56 | 49.61249 | 14.26390 | 36812 ft | 438 kts | 114° |
| 2026-05-05 22:57 | 49.59038 | 14.35128 | 36814 ft | 438 kts | 114° |
| 2026-05-05 22:57 | 49.56818 | 14.43855 | 36806 ft | 437 kts | 114° |
| 2026-05-05 22:58 | 49.54597 | 14.52566 | 36798 ft | 437 kts | 114° |
| 2026-05-05 22:58 | 49.52373 | 14.61262 | 36803 ft | 436 kts | 114° |
| 2026-05-05 22:59 | 49.50141 | 14.69958 | 36792 ft | 437 kts | 114° |
| 2026-05-05 22:59 | 49.47897 | 14.78654 | 36793 ft | 438 kts | 114° |
| 2026-05-05 23:00 | 49.44516 | 14.91708 | 36781 ft | 439 kts | 114° |
| 2026-05-05 23:00 | 49.42249 | 15.00412 | 36790 ft | 439 kts | 114° |
| 2026-05-05 23:01 | 49.39969 | 15.09132 | 36411 ft | 444 kts | 114° |
| 2026-05-05 23:01 | 49.38818 | 15.13526 | 35955 ft | 442 kts | 114° |
| 2026-05-05 23:01 | 49.37670 | 15.17899 | 35405 ft | 442 kts | 114° |
| 2026-05-05 23:02 | 49.36520 | 15.22271 | 34811 ft | 442 kts | 114° |
| 2026-05-05 23:02 | 49.35367 | 15.26646 | 34241 ft | 443 kts | 114° |
| 2026-05-05 23:02 | 49.34209 | 15.31024 | 33634 ft | 443 kts | 114° |
| 2026-05-05 23:02 | 49.33048 | 15.35415 | 33006 ft | 445 kts | 114° |
| 2026-05-05 23:03 | 49.31885 | 15.39804 | 32368 ft | 446 kts | 114° |
| 2026-05-05 23:03 | 49.30714 | 15.44214 | 31735 ft | 447 kts | 114° |
| 2026-05-05 23:03 | 49.29543 | 15.48614 | 31275 ft | 444 kts | 114° |
| 2026-05-05 23:03 | 49.28384 | 15.52971 | 30803 ft | 441 kts | 114° |
| 2026-05-05 23:04 | 49.27226 | 15.57307 | 30325 ft | 439 kts | 114° |
| 2026-05-05 23:04 | 49.26074 | 15.61619 | 29862 ft | 436 kts | 114° |
| 2026-05-05 23:04 | 49.24925 | 15.65899 | 29395 ft | 434 kts | 114° |
| 2026-05-05 23:04 | 49.23795 | 15.70103 | 28931 ft | 431 kts | 114° |
| 2026-05-05 23:05 | 49.22659 | 15.74322 | 28461 ft | 428 kts | 114° |
| 2026-05-05 23:05 | 49.21529 | 15.78515 | 27983 ft | 425 kts | 114° |
| 2026-05-05 23:05 | 49.20403 | 15.82686 | 27523 ft | 423 kts | 115° |
| 2026-05-05 23:05 | 49.19284 | 15.86824 | 27056 ft | 420 kts | 115° |
| 2026-05-05 23:06 | 49.18155 | 15.90994 | 26584 ft | 417 kts | 115° |
| 2026-05-05 23:06 | 49.17064 | 15.95016 | 26131 ft | 414 kts | 115° |
| 2026-05-05 23:06 | 49.15964 | 15.99062 | 25670 ft | 411 kts | 115° |
| 2026-05-05 23:06 | 49.14875 | 16.03088 | 25218 ft | 408 kts | 114° |
| 2026-05-05 23:07 | 49.13833 | 16.07103 | 24756 ft | 406 kts | 114° |
| 2026-05-05 23:07 | 49.12817 | 16.11111 | 24296 ft | 403 kts | 113° |
| 2026-05-05 23:07 | 49.11814 | 16.15084 | 23867 ft | 400 kts | 114° |
| 2026-05-05 23:07 | 49.10814 | 16.19035 | 23406 ft | 398 kts | 114° |
| 2026-05-05 23:08 | 49.09817 | 16.22962 | 22971 ft | 395 kts | 114° |
| 2026-05-05 23:08 | 49.08825 | 16.26851 | 22527 ft | 392 kts | 114° |
| 2026-05-05 23:08 | 49.07839 | 16.30706 | 22093 ft | 389 kts | 114° |
| 2026-05-05 23:08 | 49.06855 | 16.34537 | 21661 ft | 386 kts | 114° |
| 2026-05-05 23:09 | 49.05876 | 16.38337 | 21234 ft | 384 kts | 114° |
| 2026-05-05 23:09 | 49.04903 | 16.42107 | 20797 ft | 381 kts | 114° |
| 2026-05-05 23:09 | 49.03937 | 16.45843 | 20377 ft | 378 kts | 114° |
| 2026-05-05 23:09 | 49.02976 | 16.49556 | 19954 ft | 375 kts | 114° |
| 2026-05-05 23:10 | 49.02018 | 16.53247 | 19536 ft | 373 kts | 114° |
| 2026-05-05 23:10 | 49.01067 | 16.56911 | 19116 ft | 371 kts | 114° |
| 2026-05-05 23:10 | 49.00123 | 16.60542 | 18699 ft | 368 kts | 114° |
| 2026-05-05 23:10 | 48.99183 | 16.64151 | 18282 ft | 366 kts | 114° |
| 2026-05-05 23:11 | 48.98248 | 16.67736 | 17883 ft | 363 kts | 115° |
| 2026-05-05 23:11 | 48.97318 | 16.71291 | 17480 ft | 361 kts | 115° |
| 2026-05-05 23:11 | 48.96393 | 16.74827 | 17075 ft | 358 kts | 115° |
| 2026-05-05 23:11 | 48.95473 | 16.78334 | 16678 ft | 356 kts | 115° |
| 2026-05-05 23:12 | 48.94558 | 16.81820 | 16279 ft | 354 kts | 115° |
| 2026-05-05 23:12 | 48.93647 | 16.85286 | 15884 ft | 351 kts | 115° |
| 2026-05-05 23:12 | 48.92742 | 16.88720 | 15489 ft | 349 kts | 115° |
| 2026-05-05 23:12 | 48.91842 | 16.92131 | 15105 ft | 346 kts | 115° |
| 2026-05-05 23:13 | 48.90948 | 16.95517 | 14722 ft | 344 kts | 115° |
| 2026-05-05 23:13 | 48.90059 | 16.98881 | 14337 ft | 342 kts | 115° |
| 2026-05-05 23:13 | 48.89176 | 17.02218 | 13953 ft | 339 kts | 115° |
| 2026-05-05 23:13 | 48.88301 | 17.05531 | 13578 ft | 337 kts | 115° |
| 2026-05-05 23:14 | 48.87430 | 17.08811 | 13216 ft | 334 kts | 116° |
| 2026-05-05 23:14 | 48.86562 | 17.12068 | 12836 ft | 331 kts | 116° |
| 2026-05-05 23:14 | 48.85684 | 17.15293 | 12479 ft | 328 kts | 119° |
| 2026-05-05 23:14 | 48.84497 | 17.18172 | 12137 ft | 318 kts | 134° |
| 2026-05-05 23:15 | 48.83004 | 17.20617 | 11792 ft | 314 kts | 138° |
| 2026-05-05 23:15 | 48.81504 | 17.22961 | 11419 ft | 312 kts | 138° |
| 2026-05-05 23:15 | 48.79993 | 17.25316 | 11077 ft | 310 kts | 138° |
| 2026-05-05 23:15 | 48.78479 | 17.27694 | 10714 ft | 308 kts | 138° |
| 2026-05-05 23:16 | 48.77022 | 17.29996 | 10393 ft | 305 kts | 138° |
| 2026-05-05 23:16 | 48.75583 | 17.32281 | 10276 ft | 294 kts | 138° |
| 2026-05-05 23:16 | 48.74192 | 17.34492 | 10152 ft | 285 kts | 138° |
| 2026-05-05 23:16 | 48.72846 | 17.36629 | 10040 ft | 276 kts | 139° |
| 2026-05-05 23:17 | 48.71531 | 17.38714 | 9934 ft | 272 kts | 139° |
| 2026-05-05 23:17 | 48.70225 | 17.40782 | 9829 ft | 271 kts | 139° |
| 2026-05-05 23:17 | 48.68910 | 17.42860 | 9566 ft | 276 kts | 139° |
| 2026-05-05 23:17 | 48.67587 | 17.44954 | 9307 ft | 275 kts | 139° |
| 2026-05-05 23:18 | 48.66272 | 17.47036 | 9045 ft | 272 kts | 139° |
| 2026-05-05 23:18 | 48.64982 | 17.49079 | 8917 ft | 264 kts | 139° |
| 2026-05-05 23:18 | 48.63724 | 17.51066 | 8702 ft | 260 kts | 139° |
| 2026-05-05 23:18 | 48.62412 | 17.52892 | 8436 ft | 251 kts | 153° |
| 2026-05-05 23:19 | 48.60820 | 17.53751 | 8285 ft | 239 kts | 172° |
| 2026-05-05 23:19 | 48.59175 | 17.53863 | 8046 ft | 236 kts | 184° |
| 2026-05-05 23:19 | 48.57550 | 17.53660 | 7785 ft | 234 kts | 186° |
| 2026-05-05 23:19 | 48.55936 | 17.53420 | 7541 ft | 232 kts | 186° |
| 2026-05-05 23:20 | 48.54333 | 17.53186 | 7289 ft | 231 kts | 186° |
| 2026-05-05 23:20 | 48.52743 | 17.52962 | 7018 ft | 229 kts | 186° |
| 2026-05-05 23:20 | 48.51178 | 17.52749 | 6768 ft | 228 kts | 186° |
| 2026-05-05 23:20 | 48.49599 | 17.52539 | 6503 ft | 228 kts | 186° |
| 2026-05-05 23:21 | 48.48023 | 17.52335 | 6238 ft | 227 kts | 185° |
| 2026-05-05 23:21 | 48.46456 | 17.52134 | 5980 ft | 226 kts | 186° |
| 2026-05-05 23:21 | 48.44891 | 17.51933 | 5709 ft | 226 kts | 186° |
| 2026-05-05 23:21 | 48.43330 | 17.51734 | 5460 ft | 224 kts | 186° |
| 2026-05-05 23:22 | 48.41786 | 17.51535 | 5242 ft | 221 kts | 186° |
| 2026-05-05 23:22 | 48.40267 | 17.51341 | 5047 ft | 218 kts | 186° |
| 2026-05-05 23:22 | 48.38769 | 17.51149 | 4843 ft | 214 kts | 186° |
| 2026-05-05 23:22 | 48.37403 | 17.50523 | 4763 ft | 200 kts | 207° |
| 2026-05-05 23:23 | 48.36325 | 17.49297 | 4679 ft | 189 kts | 221° |
| 2026-05-05 23:23 | 48.35424 | 17.47947 | 4668 ft | 180 kts | 220° |
| 2026-05-05 23:23 | 48.34532 | 17.46645 | 4652 ft | 179 kts | 221° |
| 2026-05-05 23:23 | 48.33633 | 17.45333 | 4625 ft | 180 kts | 221° |
| 2026-05-05 23:24 | 48.32736 | 17.44002 | 4420 ft | 186 kts | 222° |
| 2026-05-05 23:24 | 48.31824 | 17.42645 | 4164 ft | 182 kts | 221° |
| 2026-05-05 23:24 | 48.30935 | 17.41349 | 3927 ft | 176 kts | 221° |
| 2026-05-05 23:24 | 48.30059 | 17.40085 | 3689 ft | 172 kts | 221° |
| 2026-05-05 23:25 | 48.29209 | 17.38855 | 3457 ft | 168 kts | 221° |
| 2026-05-05 23:25 | 48.28381 | 17.37665 | 3236 ft | 163 kts | 221° |
| 2026-05-05 23:25 | 48.27578 | 17.36513 | 3032 ft | 158 kts | 221° |
| 2026-05-05 23:25 | 48.26783 | 17.35367 | 2833 ft | 159 kts | 221° |
| 2026-05-05 23:26 | 48.25981 | 17.34212 | 2617 ft | 161 kts | 221° |
| 2026-05-05 23:26 | 48.25166 | 17.33039 | 2403 ft | 163 kts | 221° |
| 2026-05-05 23:26 | 48.24347 | 17.31859 | 2181 ft | 162 kts | 221° |
| 2026-05-05 23:26 | 48.23539 | 17.30692 | 1961 ft | 158 kts | 221° |
| 2026-05-05 23:27 | 48.22780 | 17.29598 | 1789 ft | 146 kts | 221° |
| 2026-05-05 23:27 | 48.22034 | 17.28524 | 1570 ft | 149 kts | 221° |
| 2026-05-05 23:27 | 48.21289 | 17.27448 | 1370 ft | 147 kts | 221° |
| 2026-05-05 23:27 | 48.20559 | 17.26399 | 1177 ft | 144 kts | 221° |
| 2026-05-05 23:28 | 48.19832 | 17.25347 | 991 ft | 145 kts | 221° |
| 2026-05-05 23:28 | 48.19105 | 17.24297 | 795 ft | 145 kts | 221° |
| 2026-05-05 23:28 | 48.18389 | 17.23247 | 599 ft | 144 kts | 222° |
| 2026-05-05 23:28 | 48.17667 | 17.22225 | 420 ft | 138 kts | 221° |
| 2026-05-05 23:29 | 48.17093 | 17.21396 | 423 ft | 84 kts | 223° |
| 2026-05-05 23:29 | 48.16773 | 17.20951 | 429 ft | 55 kts | 224° |
| 2026-05-05 23:29 | 48.16580 | 17.20668 | 432 ft | 13 kts | 226° |
| 2026-05-05 23:29 | 48.16582 | 17.20561 | 428 ft | 11 kts | 307° |
| 2026-05-05 23:30 | 48.16635 | 17.20475 | 423 ft | 11 kts | 314° |
| 2026-05-05 23:30 | 48.16670 | 17.20420 | 432 ft | 11 kts | 314° |
| 2026-05-05 23:30 | 48.16737 | 17.20321 | 431 ft | 10 kts | 319° |
| 2026-05-05 23:30 | 48.16788 | 17.20255 | 431 ft | 10 kts | 319° |
| 2026-05-05 23:31 | 48.16835 | 17.20187 | 427 ft | 9 kts | 316° |
| 2026-05-05 23:31 | 48.16873 | 17.20150 | 431 ft | 3 kts | 32° |
| 2026-05-05 23:31 | 48.16884 | 17.20164 | 420 ft | 3 kts | 41° |
| 2026-05-05 23:31 | 48.16900 | 17.20187 | 431 ft | 3 kts | 43° |
| 2026-05-05 23:32 | 48.16916 | 17.20210 | 424 ft | 3 kts | 44° |
| 2026-05-05 23:32 | 48.16931 | 17.20231 | 419 ft | 3 kts | 30° |
| 2026-05-05 23:32 | 48.16949 | 17.20212 | 431 ft | 3 kts | 316° |
| 2026-05-05 23:32 | 48.16965 | 17.20188 | 431 ft | 3 kts | 314° |
| 2026-05-05 23:33 | 48.16970 | 17.20181 | 431 ft | 0 kts | 314° |